Historyczne dane pomiarowe

Dodano dane terminowe – wersja testowa.

Dane z okresu 1951-2019

Wersja bazy: 1.34 [2019-03-16, lista zmian], aktualizacja planowana na 2019-04-15

Dane meteo z obszaru Polski uzyskane na podstawie danych udostępnionych przez Instytut Meteorologii i Gospodarki Wodnej – Państwowy Instytut Badawczy.

 

Wybierz Datę:    

       

TemperaturaWilgotnośćWiatrCiśnienieOpadyŚniegCzas trwania zjawisk
 Stacja t tx tn tng RH VA  wxwx mslp ppp RRR   cm mm wxwxwxwxwxwxwx
1994-08-14 13.1 17.9 10.6 9.2 78.5-- 7.3---- 3.6------------
1994-08-13 17.1 22.0 13.1 10.7 80.3- 6.7 3.3---- 3.5------------
1994-08-12 18.7 23.3 10.8 8.0 70.5- 5.3 2.0---- 0.0------------
1994-08-11 19.4 25.2 13.5 9.4 65.8- 4.3 2.7---- 0.0------------
1994-08-10 19.4 25.4 12.1 9.2 68.0- 2.7 2.3---- 0.0------------
1994-08-09 19.6 24.6 16.8 15.0 80.8- 7.7 1.3---- 15.8------------
1994-08-08 20.3 26.6 14.9 11.7 69.8- 5.7 1.3---- 0.0------------
1994-08-07 21.2 26.6 16.5 13.2 69.0- 2.3 3.3---- 0.0------------
1994-08-06 23.7 33.6 17.8 15.7 65.3- 5.0 2.0---- 1.7------------
1994-08-05 23.1 31.6 15.3 15.2 67.0- 1.7 1.7---- 0.0------------
1994-08-04 22.0 27.6 17.8 16.1 73.0- 5.0 2.3---- 0.0------------
1994-08-03 21.5 28.7 18.5 17.6 82.0- 7.0 2.7---- 6.9------------
1994-08-02 26.2 34.8 17.3 14.8 62.0- 2.7 4.0---- 0.0------------
1994-08-01 28.4 34.6 21.2 17.3 58.0- 3.0 2.3---- 0.0------------
1994-07-31 28.5 36.0 19.7 15.6 47.3- 1.7 1.0---- 0.0------------
1994-07-30 28.0 35.6 18.0 15.7 51.5- 1.7 1.3---- 0.0------------
1994-07-29 27.3 35.3 18.4 15.2 52.3- 1.0 1.3---- 0.0------------
1994-07-28 26.1 34.4 15.9 13.2 49.3- 0.0 1.0---- 0.0------------
1994-07-27 25.8 33.8 15.3 12.0 51.8- 0.0 1.0---- 0.0------------
1994-07-26 23.9 32.2 15.9 11.6 56.0- 0.7 1.7---- 0.0------------
1994-07-25 22.2 30.0 14.7 10.3 57.8- 1.7 1.3---- 0.0------------
1994-07-24 22.0 30.0 12.1 8.7 53.0- 1.3 2.0---- 0.0------------
1994-07-23 20.4 27.6 10.5 7.7 59.0- 1.7 1.7---- 0.0------------
1994-07-22 19.4 25.4 9.2 6.2 63.5- 0.7 3.0---- 0.0------------
1994-07-21 20.1 27.0 8.2 4.6 61.8- 1.3 1.3---- 0.0------------
1994-07-20 17.6 23.5 10.1 4.1 62.5- 0.0 2.3---- 0.0------------
1994-07-19 16.0 22.0 9.0 4.5 68.5- 3.7 1.0---- 0.0------------
1994-07-18 17.5 22.8 12.1 8.7 56.3- 2.0 3.0---- 0.0------------
1994-07-17 18.3 24.3 13.9 10.5 68.5- 7.7 2.0---- 0.0------------
1994-07-16 21.5 28.6 17.2 12.8 73.0- 6.0 3.0---- 0.8------------
1994-07-15 25.6 32.4 16.9 12.1 55.0- 1.7 1.7---- 0.0------------
1994-07-14 25.9 32.1 17.0 17.0 56.5- 3.7 2.7---- 0.0------------
1994-07-13 25.2 31.6 17.7 14.2 52.8- 3.7 1.3---- 0.0------------
1994-07-12 23.2 30.2 14.3 9.7 59.8- 3.0 3.0---- 0.0------------
1994-07-11 20.8 27.0 12.9 7.2 64.8- 0.3 5.0---- 0.0------------
1994-07-10 19.8 26.1 12.5 8.7 67.0- 1.3 2.3---- 0.0------------
1994-07-09 16.7 21.0 12.4 11.2 70.0- 6.7 2.3---- 0.0------------
1994-07-08 14.8 19.5 11.0 7.2 81.3- 7.7 1.7---- 9.9------------
1994-07-07 16.9 24.1 8.4 5.1 64.8- 2.3 2.7---- 0.0------------
1994-07-06 16.4 23.0 10.6 6.6 63.8- 5.0 3.7---- 0.0------------
1994-07-05 16.2 21.6 9.2 6.2 67.8- 3.3 4.3---- 0.0------------
1994-07-04 18.8 24.2 9.5 9.0 56.0- 0.7 4.7---- 0.0------------
1994-07-03 17.1 23.2 6.4 2.5 55.0- 2.0 3.0---- 0.0------------
1994-07-02 15.4 21.8 8.5 4.1 62.8- 1.0 2.0---- 0.0------------
1994-07-01 15.7 22.2 11.0 8.7 67.5- 1.3 4.7---- 0.0------------
1994-06-30 19.7 28.2 17.3 17.3 65.3- 5.7 3.7---- 0.0------------
1994-06-29 22.8 29.8 14.7 11.2 64.3- 0.0 1.7---- 0.5------------
1994-06-28 19.5 26.6 11.3 9.2 65.8- 2.0 1.3---- 0.0------------
1994-06-27 21.1 26.6 15.9 14.2 64.5- 6.0 1.0---- 0.0------------
1994-06-26 20.6 28.6 11.4 7.9 58.0- 0.0 4.3---- 0.0------------
1994-06-25 15.8 22.1 6.2 3.6 58.3- 0.3 1.0---- 0.0------------
1994-06-24 13.6 18.2 9.3 8.2 62.5- 3.7 11.0---- 0.0------------
1994-06-23 13.9 18.0 10.4 10.3 62.5- 6.7 17.3---- 2.2------------
1994-06-22 17.6 21.7 14.3 12.7 68.8- 7.7 5.3---- 0.3------------
1994-06-21 15.6 21.9 8.0 5.1 59.8- 2.3 1.3---- 0.3------------
1994-06-20 14.2 17.1 11.6 10.5 58.5- 5.0 7.0---- 0.0------------
1994-06-19 12.8 15.6 10.5 10.3 86.3- 8.0 2.0---- 4.3------------
1994-06-18 11.0 15.6 4.9 2.1 63.3- 7.0 3.3---- 4.5------------
1994-06-17 9.3 14.5 5.2 2.2 76.5- 6.0 5.0---- 5.3------------
1994-06-16 12.6 15.5 8.8 8.6 64.3- 7.3 6.3---- 1.3------------
1024.0 ms

 

Źródłem pochodzenia danych jest Instytut Meteorologii i Gospodarki Wodnej – Państwowy Instytut Badawczy. Dane Instytutu Meteorologii i Gospodarki Wodnej – Państwowego Instytutu Badawczego zostały przetworzone.

Dane źródłowe można odnaleźć na stronie https://dane.imgw.pl